createdAt,value
2019-03-13T00:00:21.916Z,0
2019-03-13T00:01:32.096Z,0
2019-03-13T00:02:42.218Z,0
2019-03-13T00:03:52.332Z,0
2019-03-13T00:05:02.479Z,0
2019-03-13T00:06:12.580Z,0
2019-03-13T00:07:22.688Z,0
2019-03-13T00:08:32.790Z,0
2019-03-13T00:09:42.942Z,0
2019-03-13T00:10:53.089Z,0
2019-03-13T00:12:03.202Z,0
2019-03-13T00:13:13.085Z,0
2019-03-13T00:14:23.185Z,0
2019-03-13T00:15:33.337Z,0
2019-03-13T00:16:43.453Z,0
2019-03-13T00:17:53.546Z,0
2019-03-13T00:19:03.687Z,0
2019-03-13T00:20:13.850Z,0
2019-03-13T00:21:23.964Z,0
2019-03-13T00:22:34.077Z,0
2019-03-13T00:23:44.184Z,0
2019-03-13T00:24:56.156Z,0
2019-03-13T00:26:06.426Z,0
2019-03-13T00:27:16.566Z,0
2019-03-13T00:28:26.693Z,0
2019-03-13T00:29:36.800Z,0
2019-03-13T00:30:46.916Z,0
2019-03-13T00:31:59.458Z,0
2019-03-13T00:33:09.733Z,0
2019-03-13T00:34:19.497Z,0
2019-03-13T00:35:29.607Z,0
2019-03-13T00:36:39.716Z,0
2019-03-13T00:37:49.814Z,0
2019-03-13T00:38:59.942Z,0
2019-03-13T00:40:10.051Z,0
2019-03-13T00:41:20.177Z,0
2019-03-13T00:42:30.279Z,0
2019-03-13T00:43:40.403Z,0
2019-03-13T00:44:50.744Z,0
2019-03-13T00:46:00.613Z,0
2019-03-13T00:47:10.741Z,0
2019-03-13T00:48:20.842Z,0
2019-03-13T00:49:30.953Z,0
2019-03-13T00:50:41.071Z,0
2019-03-13T00:51:51.182Z,0
2019-03-13T00:53:01.294Z,0
2019-03-13T00:54:11.432Z,0
2019-03-13T00:55:21.541Z,0
2019-03-13T00:56:31.640Z,0
2019-03-13T00:57:41.764Z,0
2019-03-13T00:58:51.871Z,0
2019-03-13T01:00:01.977Z,0
2019-03-13T01:01:11.831Z,0
2019-03-13T01:02:21.943Z,0
2019-03-13T01:03:32.050Z,0
2019-03-13T01:04:42.173Z,0
2019-03-13T01:05:52.294Z,0
2019-03-13T01:07:02.402Z,0
2019-03-13T01:08:12.530Z,0
2019-03-13T01:09:22.648Z,0
2019-03-13T01:10:32.756Z,0
2019-03-13T01:11:42.855Z,0
2019-03-13T01:12:52.953Z,0
2019-03-13T01:14:03.083Z,0
2019-03-13T01:15:12.948Z,0
2019-03-13T01:16:23.306Z,0
2019-03-13T01:17:33.471Z,0
2019-03-13T01:18:46.725Z,0
2019-03-13T01:19:56.832Z,0
2019-03-13T01:21:07.002Z,0
2019-03-13T01:22:16.871Z,0
2019-03-13T01:23:26.967Z,0
2019-03-13T01:24:37.076Z,0
2019-03-13T01:25:47.186Z,0
2019-03-13T01:26:57.313Z,0
2019-03-13T01:28:07.446Z,0
2019-03-13T01:29:17.577Z,0
2019-03-13T01:30:27.673Z,0
2019-03-13T01:31:37.775Z,0
2019-03-13T01:32:47.895Z,0
2019-03-13T01:33:58.036Z,0
2019-03-13T01:35:08.130Z,0
2019-03-13T01:36:18.246Z,0
2019-03-13T01:37:28.375Z,0
2019-03-13T01:38:38.489Z,0
2019-03-13T01:39:48.598Z,0
2019-03-13T01:40:58.799Z,0
2019-03-13T01:42:08.904Z,0
2019-03-13T01:43:19.005Z,0
2019-03-13T01:44:29.101Z,0
2019-03-13T01:45:39.221Z,0
2019-03-13T01:46:49.331Z,0
2019-03-13T01:47:59.431Z,0
2019-03-13T01:49:09.590Z,0
2019-03-13T01:50:19.718Z,0
2019-03-13T01:51:29.653Z,0
2019-03-13T01:52:39.865Z,0
2019-03-13T01:53:49.966Z,0
2019-03-13T01:55:00.117Z,0
2019-03-13T01:56:10.273Z,0
2019-03-13T01:57:20.399Z,0
2019-03-13T01:58:30.501Z,0
2019-03-13T01:59:40.616Z,0
2019-03-13T02:00:50.724Z,0
2019-03-13T02:02:00.827Z,0
2019-03-13T02:03:10.942Z,0
2019-03-13T02:04:21.056Z,0
2019-03-13T02:05:31.178Z,0
2019-03-13T02:06:41.278Z,0
2019-03-13T02:07:51.384Z,0
2019-03-13T02:09:01.493Z,0
2019-03-13T02:10:11.608Z,0
2019-03-13T02:11:21.716Z,0
2019-03-13T02:12:31.566Z,0
2019-03-13T02:13:41.740Z,0
2019-03-13T02:14:51.622Z,0
2019-03-13T02:16:01.716Z,0
2019-03-13T02:17:11.858Z,0
2019-03-13T02:18:21.959Z,0
2019-03-13T02:19:32.069Z,0
2019-03-13T02:20:42.182Z,0
2019-03-13T02:21:52.345Z,0
2019-03-13T02:23:02.454Z,0
2019-03-13T02:24:12.552Z,0
2019-03-13T02:25:22.670Z,0
2019-03-13T02:26:32.773Z,0
2019-03-13T02:27:42.889Z,0
2019-03-13T02:28:52.996Z,0
2019-03-13T02:30:03.382Z,0
2019-03-13T02:31:13.165Z,0
2019-03-13T02:32:23.044Z,0
2019-03-13T02:33:33.155Z,0
2019-03-13T02:34:43.263Z,0
2019-03-13T02:35:53.377Z,0
2019-03-13T02:37:03.539Z,0
2019-03-13T02:38:13.663Z,0
2019-03-13T02:39:23.787Z,0
2019-03-13T02:40:33.920Z,0
2019-03-13T02:41:44.020Z,0
2019-03-13T02:42:54.127Z,0
2019-03-13T02:44:04.266Z,0
2019-03-13T02:45:14.399Z,0
2019-03-13T02:46:24.509Z,0
2019-03-13T02:47:34.623Z,0
2019-03-13T02:48:44.736Z,0
2019-03-13T02:49:54.912Z,0
2019-03-13T02:51:04.781Z,0
2019-03-13T02:52:14.904Z,0
2019-03-13T02:53:24.936Z,0
2019-03-13T02:54:35.055Z,0
2019-03-13T02:55:46.198Z,0
2019-03-13T02:56:56.427Z,0
2019-03-13T02:58:06.586Z,0
2019-03-13T02:59:16.710Z,0
2019-03-13T03:00:26.603Z,0
2019-03-13T03:01:36.747Z,0
2019-03-13T03:02:46.860Z,0
2019-03-13T03:03:56.998Z,0
2019-03-13T03:05:07.139Z,0
2019-03-13T03:06:17.306Z,0
2019-03-13T03:07:27.423Z,0
2019-03-13T03:08:37.707Z,0
2019-03-13T03:09:47.903Z,0
2019-03-13T03:10:58.040Z,0
2019-03-13T03:12:08.182Z,0
2019-03-13T03:13:18.311Z,0
2019-03-13T03:14:28.434Z,0
2019-03-13T03:15:38.588Z,0
2019-03-13T03:16:48.719Z,0
2019-03-13T03:17:58.831Z,0
2019-03-13T03:19:08.935Z,0
2019-03-13T03:20:19.224Z,0
2019-03-13T03:21:29.345Z,0
2019-03-13T03:22:39.455Z,0
2019-03-13T03:23:52.638Z,0
2019-03-13T03:25:03.045Z,0
2019-03-13T03:26:13.175Z,0
2019-03-13T03:27:23.281Z,0
2019-03-13T03:28:33.426Z,0
2019-03-13T03:29:46.238Z,0
2019-03-13T03:30:56.376Z,0
2019-03-13T03:32:06.669Z,0
2019-03-13T03:33:17.180Z,0
2019-03-13T03:34:27.298Z,0
2019-03-13T03:35:37.423Z,0
2019-03-13T03:36:47.589Z,0
2019-03-13T03:37:57.747Z,0
2019-03-13T03:39:07.873Z,0
2019-03-13T03:40:21.658Z,0
2019-03-13T03:41:32.685Z,0
2019-03-13T03:42:42.803Z,0
2019-03-13T03:43:52.657Z,0
2019-03-13T03:45:03.084Z,0
2019-03-13T03:46:13.293Z,0
2019-03-13T03:47:23.430Z,0
2019-03-13T03:48:33.566Z,0
2019-03-13T03:49:43.330Z,0
2019-03-13T03:50:53.435Z,0
2019-03-13T03:52:03.582Z,0
2019-03-13T03:53:13.721Z,0
2019-03-13T03:54:23.866Z,0
2019-03-13T03:55:33.984Z,0
2019-03-13T03:56:44.115Z,0
2019-03-13T03:57:54.245Z,0
2019-03-13T03:59:04.123Z,0
2019-03-13T04:00:14.350Z,0
2019-03-13T04:01:24.477Z,0
2019-03-13T04:02:34.595Z,0
2019-03-13T04:03:44.720Z,0
2019-03-13T04:04:54.830Z,0
2019-03-13T04:06:04.961Z,0
2019-03-13T04:07:15.114Z,0
2019-03-13T04:08:25.219Z,0
2019-03-13T04:09:35.325Z,0
2019-03-13T04:10:45.188Z,0
2019-03-13T04:11:55.068Z,0
2019-03-13T04:13:05.217Z,0
2019-03-13T04:14:15.528Z,0
2019-03-13T04:15:25.708Z,0
2019-03-13T04:16:35.874Z,0
2019-03-13T04:17:46.060Z,0
2019-03-13T04:18:56.191Z,0
2019-03-13T04:20:06.309Z,0
2019-03-13T04:21:16.419Z,0
2019-03-13T04:22:26.525Z,0
2019-03-13T04:23:36.660Z,0
2019-03-13T04:24:46.519Z,0
2019-03-13T04:25:56.622Z,0
2019-03-13T04:27:06.745Z,0
2019-03-13T04:28:16.892Z,0
2019-03-13T04:29:27.099Z,0
2019-03-13T04:30:37.198Z,0
2019-03-13T04:31:47.331Z,0
2019-03-13T04:32:57.445Z,0
2019-03-13T04:34:07.552Z,0
2019-03-13T04:35:17.763Z,0
2019-03-13T04:36:27.882Z,0
2019-03-13T04:37:38.097Z,0
2019-03-13T04:38:48.213Z,0
2019-03-13T04:39:58.324Z,0
2019-03-13T04:41:08.182Z,0
2019-03-13T04:42:18.027Z,0
2019-03-13T04:43:28.132Z,0
2019-03-13T04:44:38.232Z,0
2019-03-13T04:45:48.346Z,0
2019-03-13T04:46:58.442Z,0
2019-03-13T04:48:08.561Z,0
2019-03-13T04:49:18.676Z,0
2019-03-13T04:50:28.805Z,0
2019-03-13T04:51:38.904Z,0
2019-03-13T04:52:49.018Z,0
2019-03-13T04:53:59.217Z,0
2019-03-13T04:55:09.324Z,0
2019-03-13T04:56:19.692Z,0
2019-03-13T04:57:29.809Z,0
2019-03-13T04:58:40.058Z,0
2019-03-13T04:59:50.405Z,0
2019-03-13T05:01:00.519Z,0
2019-03-13T05:02:10.667Z,0
2019-03-13T05:03:20.518Z,0
2019-03-13T05:04:30.743Z,0
2019-03-13T05:05:40.837Z,4
2019-03-13T05:06:50.927Z,4
2019-03-13T05:08:01.027Z,0
2019-03-13T05:09:11.143Z,4
2019-03-13T05:10:21.356Z,4
2019-03-13T05:11:31.478Z,4
2019-03-13T05:12:41.593Z,8
2019-03-13T05:13:52.688Z,8
2019-03-13T05:15:02.864Z,12
2019-03-13T05:16:12.968Z,12
2019-03-13T05:17:22.813Z,16
2019-03-13T05:18:32.934Z,20
2019-03-13T05:19:43.058Z,20
2019-03-13T05:20:53.154Z,24
2019-03-13T05:22:03.284Z,32
2019-03-13T05:23:13.385Z,32
2019-03-13T05:24:23.492Z,40
2019-03-13T05:25:33.634Z,48
2019-03-13T05:26:43.743Z,56
2019-03-13T05:27:53.857Z,64
2019-03-13T05:29:03.709Z,76
2019-03-13T05:30:13.849Z,88
2019-03-13T05:31:23.953Z,100
2019-03-13T05:32:34.084Z,112
2019-03-13T05:33:44.313Z,132
2019-03-13T05:34:54.447Z,148
2019-03-13T05:36:04.563Z,164
2019-03-13T05:37:14.746Z,180
2019-03-13T05:38:24.875Z,212
2019-03-13T05:39:34.998Z,220
2019-03-13T05:40:45.105Z,252
2019-03-13T05:41:55.276Z,268
2019-03-13T05:43:05.408Z,292
2019-03-13T05:44:15.528Z,324
2019-03-13T05:45:25.652Z,340
2019-03-13T05:46:35.775Z,340
2019-03-13T05:47:45.875Z,388
2019-03-13T05:48:55.988Z,432
2019-03-13T05:50:06.084Z,492
2019-03-13T05:51:16.190Z,496
2019-03-13T05:52:26.304Z,544
2019-03-13T05:53:36.396Z,544
2019-03-13T05:54:46.523Z,540
2019-03-13T05:55:56.638Z,596
2019-03-13T05:57:06.741Z,612
2019-03-13T05:58:16.875Z,656
2019-03-13T05:59:26.982Z,704
2019-03-13T06:00:37.077Z,672
2019-03-13T06:01:47.199Z,724
2019-03-13T06:02:57.303Z,764
2019-03-13T06:04:07.143Z,808
2019-03-13T06:05:17.314Z,812
2019-03-13T06:06:27.463Z,796
2019-03-13T06:07:37.572Z,832
2019-03-13T06:08:47.674Z,852
2019-03-13T06:09:57.819Z,972
2019-03-13T06:11:08.296Z,916
2019-03-13T06:12:18.419Z,1008
2019-03-13T06:13:28.545Z,1060
2019-03-13T06:14:38.652Z,1040
2019-03-13T06:15:48.772Z,1092
2019-03-13T06:16:58.878Z,1088
2019-03-13T06:18:12.154Z,1112
2019-03-13T06:19:22.298Z,1080
2019-03-13T06:20:32.392Z,1184
2019-03-13T06:21:42.494Z,1276
2019-03-13T06:22:52.602Z,1268
2019-03-13T06:24:02.807Z,1440
2019-03-13T06:25:12.928Z,1576
2019-03-13T06:26:23.232Z,1544
2019-03-13T06:27:33.350Z,1472
2019-03-13T06:28:43.453Z,1472
2019-03-13T06:29:53.558Z,1428
2019-03-13T06:31:03.675Z,1512
2019-03-13T06:32:13.793Z,1472
2019-03-13T06:33:23.916Z,1632
2019-03-13T06:34:34.029Z,1832
2019-03-13T06:35:44.120Z,2156
2019-03-13T06:36:54.241Z,2652
2019-03-13T06:38:04.364Z,2756
2019-03-13T06:39:14.499Z,2568
2019-03-13T06:40:24.734Z,2176
2019-03-13T06:41:34.862Z,1804
2019-03-13T06:42:44.993Z,1936
2019-03-13T06:43:55.122Z,2424
2019-03-13T06:45:05.324Z,2304
2019-03-13T06:46:15.443Z,2804
2019-03-13T06:47:27.674Z,3284
2019-03-13T06:48:37.796Z,2756
2019-03-13T06:49:47.946Z,2768
2019-03-13T06:50:58.054Z,3516
2019-03-13T06:52:08.201Z,3736
2019-03-13T06:53:18.337Z,3208
2019-03-13T06:54:28.467Z,3048
2019-03-13T06:55:38.590Z,3092
2019-03-13T06:56:48.694Z,2860
2019-03-13T06:57:58.788Z,2844
2019-03-13T06:59:08.995Z,3444
2019-03-13T07:00:21.467Z,3704
2019-03-13T07:01:31.563Z,3436
2019-03-13T07:02:41.659Z,4120
2019-03-13T07:03:51.767Z,4072
2019-03-13T07:05:01.634Z,4352
2019-03-13T07:06:11.735Z,4040
2019-03-13T07:07:21.848Z,4172
2019-03-13T07:08:31.964Z,4416
2019-03-13T07:09:44.138Z,4652
2019-03-13T07:10:54.244Z,4820
2019-03-13T07:12:04.381Z,4608
2019-03-13T07:13:14.589Z,4552
2019-03-13T07:14:24.694Z,4760
2019-03-13T07:15:38.150Z,4840
2019-03-13T07:16:48.014Z,5588
2019-03-13T07:17:58.149Z,5308
2019-03-13T07:19:08.259Z,5372
2019-03-13T07:20:18.382Z,5436
2019-03-13T07:21:30.857Z,5088
2019-03-13T07:22:40.949Z,4812
2019-03-13T07:23:51.077Z,4976
2019-03-13T07:25:00.683Z,4920
2019-03-13T07:26:10.827Z,5680
2019-03-13T07:27:20.931Z,5624
2019-03-13T07:28:31.100Z,5520
2019-03-13T07:29:41.208Z,5376
2019-03-13T07:30:51.342Z,4816
2019-03-13T07:32:01.476Z,4692
2019-03-13T07:33:11.608Z,4852
2019-03-13T07:34:21.722Z,4896
2019-03-13T07:35:31.843Z,4992
2019-03-13T07:36:42.078Z,5004
2019-03-13T07:37:52.192Z,4796
2019-03-13T07:39:02.299Z,4908
2019-03-13T07:40:12.436Z,5600
2019-03-13T07:41:22.672Z,6016
2019-03-13T07:42:32.805Z,5896
2019-03-13T07:43:42.933Z,6016
2019-03-13T07:44:53.046Z,6276
2019-03-13T07:46:03.222Z,6776
2019-03-13T07:47:13.335Z,7792
2019-03-13T07:48:23.463Z,9736
2019-03-13T07:49:33.588Z,9696
2019-03-13T07:50:43.448Z,8876
2019-03-13T07:51:53.214Z,7464
2019-03-13T07:53:03.331Z,7052
2019-03-13T07:54:13.430Z,8968
2019-03-13T07:55:23.291Z,12140
2019-03-13T07:56:33.409Z,14912
2019-03-13T07:57:43.574Z,15968
2019-03-13T07:58:53.696Z,27040
2019-03-13T08:00:03.825Z,20704
2019-03-13T08:01:13.944Z,11520
2019-03-13T08:02:24.070Z,10228
2019-03-13T08:03:34.171Z,8788
2019-03-13T08:04:44.275Z,9128
2019-03-13T08:05:54.383Z,9076
2019-03-13T08:07:04.506Z,8692
2019-03-13T08:08:14.617Z,8160
2019-03-13T08:09:24.737Z,7536
2019-03-13T08:10:34.869Z,6708
2019-03-13T08:11:46.751Z,7328
2019-03-13T08:12:57.085Z,7828
2019-03-13T08:14:06.953Z,8332
2019-03-13T08:15:16.819Z,10140
2019-03-13T08:16:26.943Z,9596
2019-03-13T08:17:37.055Z,8368
2019-03-13T08:18:47.201Z,8284
2019-03-13T08:19:57.344Z,6900
2019-03-13T08:21:07.473Z,7296
2019-03-13T08:22:17.628Z,9064
2019-03-13T08:23:27.748Z,10656
2019-03-13T08:24:37.959Z,11772
2019-03-13T08:25:48.085Z,17376
2019-03-13T08:26:58.303Z,22048
2019-03-13T08:28:08.427Z,26240
2019-03-13T08:29:18.525Z,12512
2019-03-13T08:30:28.666Z,27808
2019-03-13T08:31:38.795Z,12352
2019-03-13T08:32:48.923Z,10748
2019-03-13T08:33:59.051Z,10552
2019-03-13T08:35:08.928Z,8556
2019-03-13T08:36:19.069Z,8380
2019-03-13T08:37:29.205Z,8204
2019-03-13T08:38:39.308Z,8404
2019-03-13T08:39:49.420Z,9096
2019-03-13T08:40:59.540Z,10100
2019-03-13T08:42:09.639Z,11512
2019-03-13T08:43:19.855Z,14176
2019-03-13T08:44:29.988Z,16416
2019-03-13T08:45:40.094Z,16384
2019-03-13T08:46:50.215Z,13252
2019-03-13T08:48:00.334Z,17344
2019-03-13T08:49:10.474Z,37888
2019-03-13T08:50:20.579Z,39296
2019-03-13T08:51:30.708Z,40928
2019-03-13T08:52:40.818Z,42624
2019-03-13T08:53:50.945Z,45152
2019-03-13T08:55:03.656Z,36384
2019-03-13T08:56:13.439Z,46176
2019-03-13T08:57:23.575Z,39072
2019-03-13T08:58:33.712Z,47200
2019-03-13T08:59:43.817Z,40064
2019-03-13T09:00:53.950Z,31808
2019-03-13T09:02:04.063Z,26144
2019-03-13T09:03:14.221Z,25216
2019-03-13T09:04:24.336Z,19072
2019-03-13T09:05:34.466Z,18624
2019-03-13T09:06:44.597Z,18176
2019-03-13T09:07:54.788Z,15264
2019-03-13T09:09:04.950Z,14624
2019-03-13T09:10:15.068Z,19936
2019-03-13T09:11:25.198Z,17280
2019-03-13T09:12:35.328Z,19872
2019-03-13T09:13:45.451Z,15552
2019-03-13T09:14:55.316Z,13760
2019-03-13T09:16:05.442Z,13376
2019-03-13T09:17:15.574Z,13888
2019-03-13T09:18:25.687Z,14784
2019-03-13T09:19:35.809Z,14176
2019-03-13T09:20:45.944Z,13064
2019-03-13T09:21:56.063Z,14144
2019-03-13T09:23:06.187Z,17920
2019-03-13T09:24:16.417Z,23776
2019-03-13T09:25:26.581Z,26592
2019-03-13T09:26:36.725Z,24160
2019-03-13T09:27:46.952Z,24288
2019-03-13T09:28:57.067Z,25920
2019-03-13T09:30:07.185Z,21600
2019-03-13T09:31:17.328Z,44672
2019-03-13T09:32:27.458Z,40032
2019-03-13T09:33:37.330Z,42112
2019-03-13T09:34:47.087Z,40096
2019-03-13T09:35:57.222Z,41408
2019-03-13T09:37:07.368Z,46176
2019-03-13T09:38:17.232Z,43648
2019-03-13T09:39:27.390Z,33280
2019-03-13T09:40:37.509Z,25728
2019-03-13T09:41:47.634Z,23136
2019-03-13T09:42:57.758Z,27904
2019-03-13T09:44:07.895Z,40256
2019-03-13T09:45:17.810Z,49056
2019-03-13T09:46:27.951Z,50112
2019-03-13T09:47:38.325Z,46528
2019-03-13T09:48:48.490Z,47552
2019-03-13T09:49:58.599Z,48832
2019-03-13T09:51:08.710Z,42656
2019-03-13T09:52:18.863Z,38880
2019-03-13T09:53:29.025Z,45728
2019-03-13T09:54:39.134Z,49600
2019-03-13T09:55:49.257Z,46240
2019-03-13T09:56:59.393Z,40352
2019-03-13T09:58:09.711Z,36512
2019-03-13T09:59:19.936Z,39808
2019-03-13T10:00:30.266Z,36256
2019-03-13T10:01:40.378Z,36960
2019-03-13T10:02:50.900Z,39296
2019-03-13T10:04:00.765Z,36864
2019-03-13T10:06:24.934Z,45216
2019-03-13T10:07:37.518Z,42592
2019-03-13T10:08:48.053Z,44864
2019-03-13T10:09:58.186Z,46080
2019-03-13T10:12:23.371Z,42464
2019-03-13T10:13:33.488Z,36160
2019-03-13T10:14:44.210Z,42656
2019-03-13T10:15:54.340Z,31040
2019-03-13T10:17:16.981Z,31008
2019-03-13T10:19:43.233Z,20992
2019-03-13T10:20:53.314Z,40928
2019-03-13T10:22:03.476Z,38240
2019-03-13T10:23:13.616Z,39040
2019-03-13T10:24:23.814Z,40480
2019-03-13T10:25:33.994Z,43104
2019-03-13T10:26:44.099Z,46112
2019-03-13T10:27:54.235Z,59456
2019-03-13T10:29:04.409Z,43808
2019-03-13T10:30:14.574Z,16320
2019-03-13T10:31:24.692Z,17312
2019-03-13T10:32:34.587Z,17408
2019-03-13T10:33:44.750Z,15840
2019-03-13T10:34:54.890Z,33792
2019-03-13T10:36:05.042Z,25600
2019-03-13T10:37:15.169Z,44320
2019-03-13T10:38:25.049Z,27104
2019-03-13T10:39:35.188Z,22944
2019-03-13T10:40:45.321Z,11088
2019-03-13T10:41:58.390Z,9140
2019-03-13T10:43:08.843Z,8592
2019-03-13T10:44:18.974Z,7692
2019-03-13T10:45:29.108Z,8936
2019-03-13T10:46:38.988Z,8016
2019-03-13T10:47:49.125Z,5720
2019-03-13T10:49:00.904Z,5020
2019-03-13T10:50:11.029Z,4852
2019-03-13T10:51:21.252Z,4128
2019-03-13T10:52:31.392Z,4012
2019-03-13T10:53:41.512Z,4196
2019-03-13T10:54:51.739Z,5080
2019-03-13T10:56:02.659Z,6068
2019-03-13T10:57:12.770Z,8088
2019-03-13T10:58:22.886Z,9188
2019-03-13T10:59:33.000Z,8996
2019-03-13T11:00:43.185Z,8160
2019-03-13T11:01:56.208Z,6104
2019-03-13T11:03:06.317Z,6092
2019-03-13T11:04:16.216Z,5568
2019-03-13T11:05:26.345Z,4720
2019-03-13T11:06:36.460Z,4320
2019-03-13T11:07:46.622Z,4012
2019-03-13T11:08:56.740Z,4364
2019-03-13T11:10:06.846Z,4844
2019-03-13T11:11:16.985Z,5032
2019-03-13T11:12:27.128Z,4336
2019-03-13T11:13:37.250Z,3792
2019-03-13T11:14:47.116Z,3352
2019-03-13T11:15:57.241Z,3152
2019-03-13T11:17:07.359Z,3456
2019-03-13T11:18:20.474Z,3112
2019-03-13T11:19:30.607Z,3280
2019-03-13T11:20:40.735Z,3960
2019-03-13T11:21:50.857Z,4688
2019-03-13T11:23:00.969Z,4620
2019-03-13T11:24:11.103Z,4576
2019-03-13T11:25:21.213Z,4268
2019-03-13T11:26:31.342Z,4148
2019-03-13T11:27:41.464Z,3920
2019-03-13T11:28:51.612Z,3940
2019-03-13T11:30:01.499Z,3712
2019-03-13T11:31:11.624Z,3360
2019-03-13T11:32:21.489Z,3600
2019-03-13T11:33:31.624Z,3856
2019-03-13T11:34:41.741Z,3848
2019-03-13T11:35:51.864Z,4372
2019-03-13T11:37:02.002Z,4364
2019-03-13T11:38:12.141Z,4756
2019-03-13T11:39:22.259Z,4892
2019-03-13T11:40:32.415Z,4824
2019-03-13T11:41:42.523Z,4916
2019-03-13T11:42:52.666Z,5156
2019-03-13T11:44:02.779Z,4368
2019-03-13T11:45:13.061Z,4600
2019-03-13T11:46:23.179Z,4476
2019-03-13T11:47:46.673Z,4168
2019-03-13T11:48:56.849Z,4372
2019-03-13T11:50:07.082Z,4376
2019-03-13T11:51:17.207Z,4732
2019-03-13T11:52:27.070Z,4212
2019-03-13T11:53:37.232Z,4004
2019-03-13T11:54:47.107Z,4140
2019-03-13T11:55:57.261Z,3920
2019-03-13T11:57:07.388Z,3920
2019-03-13T11:58:17.512Z,4108
2019-03-13T11:59:27.630Z,4220
2019-03-13T12:00:37.768Z,4308
2019-03-13T12:01:53.002Z,4356
2019-03-13T12:03:03.161Z,6392
2019-03-13T12:04:13.263Z,6112
2019-03-13T12:05:23.411Z,6196
2019-03-13T12:06:33.584Z,7040
2019-03-13T12:07:46.066Z,7372
2019-03-13T12:08:56.209Z,7176
2019-03-13T12:10:06.332Z,6516
2019-03-13T12:11:16.446Z,6056
2019-03-13T12:12:26.664Z,5992
2019-03-13T12:13:36.889Z,6680
2019-03-13T12:14:46.752Z,6896
2019-03-13T12:15:56.856Z,6652
2019-03-13T12:17:07.078Z,7948
2019-03-13T12:18:17.200Z,7268
2019-03-13T12:19:27.317Z,7068
2019-03-13T12:20:37.446Z,6396
2019-03-13T12:21:47.555Z,6116
2019-03-13T12:22:57.444Z,6152
2019-03-13T12:24:07.569Z,7192
2019-03-13T12:25:17.734Z,8476
2019-03-13T12:26:27.898Z,7584
2019-03-13T12:27:38.035Z,8356
2019-03-13T12:28:48.347Z,10768
2019-03-13T12:29:58.506Z,17472
2019-03-13T12:31:08.630Z,12904
2019-03-13T12:32:21.749Z,11236
2019-03-13T12:33:31.868Z,11276
2019-03-13T12:34:43.250Z,23200
2019-03-13T12:35:53.388Z,12868
2019-03-13T12:37:03.630Z,10684
2019-03-13T12:38:13.788Z,10208
2019-03-13T12:39:23.911Z,9688
2019-03-13T12:40:34.032Z,9572
2019-03-13T12:41:44.148Z,14880
2019-03-13T12:42:54.295Z,15840
2019-03-13T12:44:04.459Z,26080
2019-03-13T12:45:14.663Z,20192
2019-03-13T12:46:24.798Z,14560
2019-03-13T12:47:34.927Z,13656
2019-03-13T12:48:45.066Z,13444
2019-03-13T12:49:55.215Z,13320
2019-03-13T12:51:05.069Z,16512
2019-03-13T12:52:15.218Z,14112
2019-03-13T12:53:25.341Z,17728
2019-03-13T12:54:35.460Z,26240
2019-03-13T12:55:45.589Z,22304
2019-03-13T12:56:55.723Z,16864
2019-03-13T12:58:05.855Z,14208
2019-03-13T12:59:16.005Z,28544
2019-03-13T13:00:26.136Z,25536
2019-03-13T13:01:36.253Z,18080
2019-03-13T13:02:46.376Z,9732
2019-03-13T13:03:56.500Z,8156
2019-03-13T13:05:06.623Z,7884
2019-03-13T13:06:16.771Z,8452
2019-03-13T13:07:26.648Z,8064
2019-03-13T13:08:36.776Z,6084
2019-03-13T13:09:47.886Z,5420
2019-03-13T13:10:58.050Z,5620
2019-03-13T13:12:08.161Z,5980
2019-03-13T13:13:18.292Z,5492
2019-03-13T13:14:28.216Z,4624
2019-03-13T13:15:38.360Z,4296
2019-03-13T13:16:48.483Z,4604
2019-03-13T13:17:58.344Z,4372
2019-03-13T13:19:08.458Z,4060
2019-03-13T13:20:18.645Z,4712
2019-03-13T13:21:31.887Z,5044
2019-03-13T13:22:42.046Z,4112
2019-03-13T13:23:52.183Z,4240
2019-03-13T13:25:02.074Z,4996
2019-03-13T13:26:12.230Z,5496
2019-03-13T13:27:22.360Z,6912
2019-03-13T13:28:32.478Z,6772
2019-03-13T13:29:42.623Z,7672
2019-03-13T13:30:52.749Z,7168
2019-03-13T13:32:02.952Z,6652
2019-03-13T13:33:13.096Z,5484
2019-03-13T13:34:23.232Z,4368
2019-03-13T13:35:33.358Z,3584
2019-03-13T13:36:43.496Z,3144
2019-03-13T13:37:53.622Z,3348
2019-03-13T13:39:03.759Z,3036
2019-03-13T13:40:13.886Z,2920
2019-03-13T13:41:24.022Z,2756
2019-03-13T13:42:34.140Z,3000
2019-03-13T13:43:44.299Z,2508
2019-03-13T13:44:54.426Z,2280
2019-03-13T13:46:04.564Z,2468
2019-03-13T13:47:14.691Z,2360
2019-03-13T13:48:24.815Z,2420
2019-03-13T13:49:34.710Z,2112
2019-03-13T13:50:44.821Z,2008
2019-03-13T13:51:54.700Z,2204
2019-03-13T13:53:04.836Z,2004
2019-03-13T13:54:15.081Z,1804
2019-03-13T13:55:25.195Z,1844
2019-03-13T13:56:35.384Z,1892
2019-03-13T13:57:45.520Z,1568
2019-03-13T13:58:55.636Z,1524
2019-03-13T14:00:06.734Z,1780
2019-03-13T14:01:16.874Z,1676
2019-03-13T14:02:27.034Z,1500
2019-03-13T14:03:37.165Z,1656
2019-03-13T14:04:47.296Z,2412
2019-03-13T14:05:57.421Z,5252
2019-03-13T14:07:07.544Z,7088
2019-03-13T14:08:17.650Z,6628
2019-03-13T14:09:27.813Z,6572
2019-03-13T14:10:37.948Z,6772
2019-03-13T14:11:48.083Z,6668
2019-03-13T14:12:58.212Z,6332
2019-03-13T14:14:08.341Z,6468
2019-03-13T14:15:18.482Z,6320
2019-03-13T14:16:28.608Z,6036
2019-03-13T14:17:38.730Z,5352
2019-03-13T14:18:48.857Z,4764
2019-03-13T14:19:58.967Z,4668
2019-03-13T14:21:08.861Z,5372
2019-03-13T14:22:18.990Z,6612
2019-03-13T14:23:29.323Z,5880
2019-03-13T14:24:39.427Z,6080
2019-03-13T14:25:49.591Z,5132
2019-03-13T14:26:59.815Z,6424
2019-03-13T14:28:22.096Z,7712
2019-03-13T14:29:32.260Z,7220
2019-03-13T14:30:42.414Z,6564
2019-03-13T14:31:52.535Z,5256
2019-03-13T14:33:02.675Z,4884
2019-03-13T14:34:12.817Z,4520
2019-03-13T14:35:22.932Z,4236
2019-03-13T14:36:33.070Z,6132
2019-03-13T14:37:43.285Z,6904
2019-03-13T14:38:53.153Z,6876
2019-03-13T14:40:03.329Z,6856
2019-03-13T14:41:13.451Z,5576
2019-03-13T14:42:23.612Z,4712
2019-03-13T14:43:33.725Z,4244
2019-03-13T14:44:43.852Z,3684
2019-03-13T14:45:53.996Z,2920
2019-03-13T14:47:04.119Z,2916
2019-03-13T14:48:14.265Z,3660
2019-03-13T14:49:24.398Z,4248
2019-03-13T14:50:36.403Z,5160
2019-03-13T14:51:46.768Z,6488
2019-03-13T14:52:56.917Z,4672
2019-03-13T14:54:07.062Z,3140
2019-03-13T14:55:17.461Z,2944
2019-03-13T14:56:27.605Z,3692
2019-03-13T14:57:37.747Z,3920
2019-03-13T14:58:47.915Z,3700
2019-03-13T14:59:58.108Z,4152
2019-03-13T15:01:08.395Z,3448
2019-03-13T15:02:18.537Z,3096
2019-03-13T15:03:28.716Z,2888
2019-03-13T15:04:38.859Z,3032
2019-03-13T15:05:48.983Z,4068
2019-03-13T15:06:59.132Z,5708
2019-03-13T15:08:09.276Z,5776
2019-03-13T15:09:19.500Z,4816
2019-03-13T15:10:29.819Z,3972
2019-03-13T15:11:40.005Z,3720
2019-03-13T15:12:50.595Z,3844
2019-03-13T15:14:00.745Z,4332
2019-03-13T15:15:10.865Z,4788
2019-03-13T15:16:21.012Z,4084
2019-03-13T15:17:31.126Z,4016
2019-03-13T15:18:41.267Z,3300
2019-03-13T15:19:51.471Z,2428
2019-03-13T15:21:01.593Z,2308
2019-03-13T15:22:11.750Z,1660
2019-03-13T15:23:21.903Z,1456
2019-03-13T15:24:32.038Z,1532
2019-03-13T15:25:42.182Z,1564
2019-03-13T15:26:52.292Z,1728
2019-03-13T15:28:02.502Z,1672
2019-03-13T15:29:12.735Z,1740
2019-03-13T15:30:22.879Z,1608
2019-03-13T15:31:33.036Z,1552
2019-03-13T15:32:43.181Z,1768
2019-03-13T15:33:53.297Z,1968
2019-03-13T15:35:03.450Z,1888
2019-03-13T15:36:13.579Z,1728
2019-03-13T15:37:23.734Z,1888
2019-03-13T15:38:33.881Z,2168
2019-03-13T15:39:44.136Z,2132
2019-03-13T15:40:54.318Z,1936
2019-03-13T15:42:06.052Z,1716
2019-03-13T15:43:16.198Z,1664
2019-03-13T15:44:25.987Z,1652
2019-03-13T15:45:36.132Z,1680
2019-03-13T15:46:46.260Z,1700
2019-03-13T15:47:56.418Z,1388
2019-03-13T15:49:06.593Z,1436
2019-03-13T15:50:16.738Z,1344
2019-03-13T15:51:26.982Z,1588
2019-03-13T15:52:37.182Z,1912
2019-03-13T15:53:47.345Z,2172
2019-03-13T15:54:57.503Z,2348
2019-03-13T15:56:07.632Z,2692
2019-03-13T15:57:20.781Z,3248
2019-03-13T15:58:31.009Z,3924
2019-03-13T15:59:41.179Z,4488
2019-03-13T16:00:51.349Z,4664
2019-03-13T16:02:01.492Z,4492
2019-03-13T16:03:11.638Z,4124
2019-03-13T16:04:21.610Z,3480
2019-03-13T16:05:31.734Z,3084
2019-03-13T16:06:41.862Z,2856